sensor_id;sensor_type;location;lat;lon;timestamp;pressure;altitude;pressure_sealevel;temperature;humidity
10474;BME280;5284;50.446;7.904;2023-04-28T00:03:07;98247.84;;;11.29;80.23
10474;BME280;5284;50.446;7.904;2023-04-28T00:08:12;98239.28;;;11.25;79.39
10474;BME280;5284;50.446;7.904;2023-04-28T00:13:15;98238.16;;;11.28;78.50
10474;BME280;5284;50.446;7.904;2023-04-28T00:18:18;98236.06;;;11.22;80.97
10474;BME280;5284;50.446;7.904;2023-04-28T00:23:22;98225.50;;;11.20;84.38
10474;BME280;5284;50.446;7.904;2023-04-28T00:28:24;98219.47;;;11.18;85.79
10474;BME280;5284;50.446;7.904;2023-04-28T00:33:35;98212.44;;;11.17;85.02
10474;BME280;5284;50.446;7.904;2023-04-28T00:38:40;98210.75;;;11.16;84.63
10474;BME280;5284;50.446;7.904;2023-04-28T00:43:44;98199.56;;;11.13;85.60
10474;BME280;5284;50.446;7.904;2023-04-28T00:48:48;98192.66;;;11.01;84.21
10474;BME280;5284;50.446;7.904;2023-04-28T00:53:52;98186.09;;;10.95;88.74
10474;BME280;5284;50.446;7.904;2023-04-28T00:58:56;98184.69;;;10.91;87.86
10474;BME280;5284;50.446;7.904;2023-04-28T01:03:59;98179.34;;;10.91;94.57
10474;BME280;5284;50.446;7.904;2023-04-28T01:09:04;98173.84;;;10.93;94.07
10474;BME280;5284;50.446;7.904;2023-04-28T01:14:08;98180.75;;;10.86;97.18
10474;BME280;5284;50.446;7.904;2023-04-28T01:19:18;98168.81;;;10.80;100.00
10474;BME280;5284;50.446;7.904;2023-04-28T01:24:23;98161.78;;;10.70;97.54
10474;BME280;5284;50.446;7.904;2023-04-28T01:29:27;98143.41;;;10.58;100.00
10474;BME280;5284;50.446;7.904;2023-04-28T01:34:30;98143.13;;;10.61;100.00
10474;BME280;5284;50.446;7.904;2023-04-28T01:39:34;98130.34;;;10.55;100.00
10474;BME280;5284;50.446;7.904;2023-04-28T01:44:37;98136.94;;;10.51;100.00
10474;BME280;5284;50.446;7.904;2023-04-28T01:49:40;98138.34;;;10.55;100.00
10474;BME280;5284;50.446;7.904;2023-04-28T01:54:44;98133.28;;;10.52;100.00
10474;BME280;5284;50.446;7.904;2023-04-28T01:59:47;98138.91;;;10.49;100.00
10474;BME280;5284;50.446;7.904;2023-04-28T02:04:50;98130.94;;;10.39;100.00
10474;BME280;5284;50.446;7.904;2023-04-28T02:09:56;98121.63;;;10.24;100.00
10474;BME280;5284;50.446;7.904;2023-04-28T02:14:58;98116.88;;;10.18;100.00
10474;BME280;5284;50.446;7.904;2023-04-28T02:20:02;98116.16;;;10.16;100.00
10474;BME280;5284;50.446;7.904;2023-04-28T02:25:08;98115.75;;;10.21;100.00
10474;BME280;5284;50.446;7.904;2023-04-28T02:30:12;98098.22;;;10.18;100.00
10474;BME280;5284;50.446;7.904;2023-04-28T02:35:14;98086.16;;;10.14;100.00
10474;BME280;5284;50.446;7.904;2023-04-28T02:40:19;98099.59;;;10.13;100.00
10474;BME280;5284;50.446;7.904;2023-04-28T02:45:22;98097.09;;;10.21;100.00
10474;BME280;5284;50.446;7.904;2023-04-28T02:50:24;98093.47;;;10.22;100.00
10474;BME280;5284;50.446;7.904;2023-04-28T02:55:29;98089.25;;;10.19;100.00
10474;BME280;5284;50.446;7.904;2023-04-28T03:00:32;98089.38;;;10.18;100.00
10474;BME280;5284;50.446;7.904;2023-04-28T03:05:35;98091.03;;;10.19;100.00
10474;BME280;5284;50.446;7.904;2023-04-28T03:10:39;98096.94;;;10.13;100.00
10474;BME280;5284;50.446;7.904;2023-04-28T03:15:42;98099.47;;;10.14;100.00
10474;BME280;5284;50.446;7.904;2023-04-28T03:20:45;98085.19;;;10.15;100.00
10474;BME280;5284;50.446;7.904;2023-04-28T03:25:49;98081.50;;;10.07;100.00
10474;BME280;5284;50.446;7.904;2023-04-28T03:30:52;98074.88;;;9.92;100.00
10474;BME280;5284;50.446;7.904;2023-04-28T03:35:55;98082.56;;;9.85;100.00
10474;BME280;5284;50.446;7.904;2023-04-28T03:40:59;98060.97;;;9.79;100.00
10474;BME280;5284;50.446;7.904;2023-04-28T03:46:05;98048.75;;;9.67;100.00
10474;BME280;5284;50.446;7.904;2023-04-28T03:51:08;98041.47;;;9.69;100.00
10474;BME280;5284;50.446;7.904;2023-04-28T03:56:13;98029.25;;;9.66;100.00
10474;BME280;5284;50.446;7.904;2023-04-28T04:01:16;98011.63;;;9.56;100.00
10474;BME280;5284;50.446;7.904;2023-04-28T04:06:21;98023.63;;;9.50;100.00
10474;BME280;5284;50.446;7.904;2023-04-28T04:11:26;98025.31;;;9.51;100.00
10474;BME280;5284;50.446;7.904;2023-04-28T04:17:41;98028.53;;;9.45;100.00
10474;BME280;5284;50.446;7.904;2023-04-28T04:22:48;98017.31;;;9.42;100.00
10474;BME280;5284;50.446;7.904;2023-04-28T04:27:53;98024.75;;;9.38;100.00
10474;BME280;5284;50.446;7.904;2023-04-28T04:32:56;98027.69;;;9.45;100.00
10474;BME280;5284;50.446;7.904;2023-04-28T04:37:59;98028.81;;;9.52;100.00
10474;BME280;5284;50.446;7.904;2023-04-28T04:43:03;98030.91;;;9.48;100.00
10474;BME280;5284;50.446;7.904;2023-04-28T04:48:12;98026.13;;;9.33;100.00
10474;BME280;5284;50.446;7.904;2023-04-28T04:53:15;98014.59;;;9.23;100.00
10474;BME280;5284;50.446;7.904;2023-04-28T04:58:20;98006.03;;;9.19;100.00
10474;BME280;5284;50.446;7.904;2023-04-28T05:03:44;98012.78;;;9.23;100.00
10474;BME280;5284;50.446;7.904;2023-04-28T05:08:48;98010.81;;;9.25;100.00
10474;BME280;5284;50.446;7.904;2023-04-28T05:13:53;98023.41;;;9.23;100.00
10474;BME280;5284;50.446;7.904;2023-04-28T05:18:57;98026.63;;;9.17;100.00
10474;BME280;5284;50.446;7.904;2023-04-28T05:24:01;98026.88;;;9.14;100.00
10474;BME280;5284;50.446;7.904;2023-04-28T05:29:05;98033.22;;;9.23;100.00
10474;BME280;5284;50.446;7.904;2023-04-28T05:34:09;98036.88;;;9.22;100.00
10474;BME280;5284;50.446;7.904;2023-04-28T05:39:12;98041.16;;;9.13;100.00
10474;BME280;5284;50.446;7.904;2023-04-28T05:44:17;98036.94;;;9.11;100.00
10474;BME280;5284;50.446;7.904;2023-04-28T05:49:21;98049.84;;;9.15;100.00
10474;BME280;5284;50.446;7.904;2023-04-28T05:54:27;98046.75;;;9.10;100.00
10474;BME280;5284;50.446;7.904;2023-04-28T05:59:32;98054.28;;;9.06;100.00
10474;BME280;5284;50.446;7.904;2023-04-28T06:04:37;98040.47;;;9.11;100.00
10474;BME280;5284;50.446;7.904;2023-04-28T06:09:43;98036.41;;;9.17;100.00
10474;BME280;5284;50.446;7.904;2023-04-28T06:14:47;98031.28;;;9.25;100.00
10474;BME280;5284;50.446;7.904;2023-04-28T06:19:50;98035.13;;;9.11;100.00
10474;BME280;5284;50.446;7.904;2023-04-28T06:24:55;98025.94;;;9.25;100.00
10474;BME280;5284;50.446;7.904;2023-04-28T06:30:08;98029.03;;;9.30;100.00
10474;BME280;5284;50.446;7.904;2023-04-28T06:35:11;98023.91;;;9.08;100.00
10474;BME280;5284;50.446;7.904;2023-04-28T06:40:14;98024.69;;;9.29;100.00
10474;BME280;5284;50.446;7.904;2023-04-28T06:45:30;98024.69;;;9.29;100.00
10474;BME280;5284;50.446;7.904;2023-04-28T06:50:33;98016.75;;;9.38;100.00
10474;BME280;5284;50.446;7.904;2023-04-28T06:55:40;97996.69;;;9.34;100.00
10474;BME280;5284;50.446;7.904;2023-04-28T07:00:44;97975.53;;;9.23;100.00
10474;BME280;5284;50.446;7.904;2023-04-28T07:05:47;97967.88;;;9.39;100.00
10474;BME280;5284;50.446;7.904;2023-04-28T07:10:51;98005.72;;;9.52;100.00
10474;BME280;5284;50.446;7.904;2023-04-28T07:15:55;98017.34;;;9.51;100.00
10474;BME280;5284;50.446;7.904;2023-04-28T07:20:58;98005.22;;;9.28;100.00
10474;BME280;5284;50.446;7.904;2023-04-28T07:26:06;98002.34;;;9.50;100.00
10474;BME280;5284;50.446;7.904;2023-04-28T07:31:11;98018.72;;;9.46;100.00
10474;BME280;5284;50.446;7.904;2023-04-28T07:36:15;98022.06;;;9.48;100.00
10474;BME280;5284;50.446;7.904;2023-04-28T07:41:18;98019.16;;;9.60;100.00
10474;BME280;5284;50.446;7.904;2023-04-28T07:46:24;98012.06;;;9.70;100.00
10474;BME280;5284;50.446;7.904;2023-04-28T07:51:28;98013.63;;;9.92;100.00
10474;BME280;5284;50.446;7.904;2023-04-28T07:56:31;98012.94;;;10.09;100.00
10474;BME280;5284;50.446;7.904;2023-04-28T08:01:37;98019.53;;;10.33;100.00
10474;BME280;5284;50.446;7.904;2023-04-28T08:06:40;98015.56;;;10.47;100.00
10474;BME280;5284;50.446;7.904;2023-04-28T08:11:46;98026.41;;;10.45;100.00
10474;BME280;5284;50.446;7.904;2023-04-28T08:16:50;98031.09;;;10.79;100.00
10474;BME280;5284;50.446;7.904;2023-04-28T08:21:54;98024.75;;;10.90;100.00
10474;BME280;5284;50.446;7.904;2023-04-28T08:26:57;98024.31;;;10.94;100.00
10474;BME280;5284;50.446;7.904;2023-04-28T08:32:01;98042.16;;;10.84;100.00
10474;BME280;5284;50.446;7.904;2023-04-28T08:37:03;98043.72;;;10.77;100.00
10474;BME280;5284;50.446;7.904;2023-04-28T08:42:08;98039.34;;;10.95;100.00
10474;BME280;5284;50.446;7.904;2023-04-28T08:47:13;98046.03;;;11.09;100.00
10474;BME280;5284;50.446;7.904;2023-04-28T08:52:18;98041.72;;;11.35;100.00
10474;BME280;5284;50.446;7.904;2023-04-28T08:57:25;98055.47;;;11.40;100.00
10474;BME280;5284;50.446;7.904;2023-04-28T09:02:29;98050.78;;;11.78;100.00
10474;BME280;5284;50.446;7.904;2023-04-28T09:07:33;98039.41;;;11.76;100.00
10474;BME280;5284;50.446;7.904;2023-04-28T09:12:36;98043.72;;;12.04;100.00
10474;BME280;5284;50.446;7.904;2023-04-28T09:17:48;98037.22;;;12.07;100.00
10474;BME280;5284;50.446;7.904;2023-04-28T09:22:53;98042.66;;;12.49;100.00
10474;BME280;5284;50.446;7.904;2023-04-28T09:27:56;98034.25;;;12.62;100.00
10474;BME280;5284;50.446;7.904;2023-04-28T09:33:04;98031.88;;;13.02;100.00
10474;BME280;5284;50.446;7.904;2023-04-28T09:38:12;98030.59;;;13.14;100.00
10474;BME280;5284;50.446;7.904;2023-04-28T09:43:22;98013.59;;;12.97;100.00
10474;BME280;5284;50.446;7.904;2023-04-28T09:48:29;98017.72;;;14.08;100.00
10474;BME280;5284;50.446;7.904;2023-04-28T09:53:33;98017.91;;;14.06;100.00
10474;BME280;5284;50.446;7.904;2023-04-28T09:58:39;98016.47;;;14.60;100.00
10474;BME280;5284;50.446;7.904;2023-04-28T10:03:47;98010.44;;;14.34;100.00
10474;BME280;5284;50.446;7.904;2023-04-28T10:08:55;98002.56;;;14.32;100.00
10474;BME280;5284;50.446;7.904;2023-04-28T10:13:59;97998.53;;;14.36;100.00
10474;BME280;5284;50.446;7.904;2023-04-28T10:19:04;97991.38;;;15.15;100.00
10474;BME280;5284;50.446;7.904;2023-04-28T10:24:14;97987.72;;;15.93;100.00
10474;BME280;5284;50.446;7.904;2023-04-28T10:29:22;97976.66;;;16.33;100.00
10474;BME280;5284;50.446;7.904;2023-04-28T10:34:27;97966.38;;;16.95;100.00
10474;BME280;5284;50.446;7.904;2023-04-28T10:39:32;97981.50;;;16.82;100.00
10474;BME280;5284;50.446;7.904;2023-04-28T10:44:41;97975.03;;;16.91;100.00
10474;BME280;5284;50.446;7.904;2023-04-28T10:50:10;97963.94;;;17.37;100.00
10474;BME280;5284;50.446;7.904;2023-04-28T10:55:28;97961.63;;;16.69;100.00
10474;BME280;5284;50.446;7.904;2023-04-28T11:00:38;97944.66;;;17.26;100.00
10474;BME280;5284;50.446;7.904;2023-04-28T11:06:19;97934.19;;;17.81;100.00
10474;BME280;5284;50.446;7.904;2023-04-28T11:11:26;97934.16;;;18.85;100.00
10474;BME280;5284;50.446;7.904;2023-04-28T11:16:31;97947.44;;;18.80;100.00
10474;BME280;5284;50.446;7.904;2023-04-28T11:21:35;97927.88;;;18.09;100.00
10474;BME280;5284;50.446;7.904;2023-04-28T11:26:39;97939.94;;;18.13;100.00
10474;BME280;5284;50.446;7.904;2023-04-28T11:31:48;97936.72;;;18.03;100.00
10474;BME280;5284;50.446;7.904;2023-04-28T11:36:53;97939.78;;;18.00;100.00
10474;BME280;5284;50.446;7.904;2023-04-28T11:41:57;97934.59;;;18.20;100.00
10474;BME280;5284;50.446;7.904;2023-04-28T11:47:02;97928.84;;;18.44;100.00
10474;BME280;5284;50.446;7.904;2023-04-28T11:52:08;97916.03;;;19.34;100.00
10474;BME280;5284;50.446;7.904;2023-04-28T11:57:19;97917.25;;;20.97;94.59
10474;BME280;5284;50.446;7.904;2023-04-28T12:02:26;97919.69;;;20.20;97.27
10474;BME280;5284;50.446;7.904;2023-04-28T12:07:39;97920.91;;;19.52;98.55
10474;BME280;5284;50.446;7.904;2023-04-28T12:12:43;97906.78;;;19.63;98.99
10474;BME280;5284;50.446;7.904;2023-04-28T12:17:54;97913.44;;;20.39;97.35
10474;BME280;5284;50.446;7.904;2023-04-28T12:22:59;97901.09;;;19.45;100.00
10474;BME280;5284;50.446;7.904;2023-04-28T12:28:06;97902.53;;;19.41;100.00
10474;BME280;5284;50.446;7.904;2023-04-28T12:33:21;97905.91;;;19.15;100.00
10474;BME280;5284;50.446;7.904;2023-04-28T12:38:25;97903.81;;;19.51;100.00
10474;BME280;5284;50.446;7.904;2023-04-28T12:43:28;97900.72;;;20.20;94.69
10474;BME280;5284;50.446;7.904;2023-04-28T12:48:31;97902.44;;;19.68;100.00
10474;BME280;5284;50.446;7.904;2023-04-28T12:53:37;97907.59;;;20.10;97.00
10474;BME280;5284;50.446;7.904;2023-04-28T12:58:42;97905.56;;;19.65;100.00
10474;BME280;5284;50.446;7.904;2023-04-28T13:03:44;97902.81;;;19.59;100.00
10474;BME280;5284;50.446;7.904;2023-04-28T13:08:51;97892.84;;;19.66;100.00
10474;BME280;5284;50.446;7.904;2023-04-28T13:13:54;97894.56;;;19.26;100.00
10474;BME280;5284;50.446;7.904;2023-04-28T13:18:58;97897.53;;;19.10;100.00
10474;BME280;5284;50.446;7.904;2023-04-28T13:24:05;97874.19;;;18.42;100.00
10474;BME280;5284;50.446;7.904;2023-04-28T13:29:10;97874.59;;;18.39;100.00
10474;BME280;5284;50.446;7.904;2023-04-28T13:34:13;97882.78;;;22.11;100.00
10474;BME280;5284;50.446;7.904;2023-04-28T13:39:19;97889.63;;;24.66;86.98
10474;BME280;5284;50.446;7.904;2023-04-28T13:44:22;97876.03;;;26.86;74.06
10474;BME280;5284;50.446;7.904;2023-04-28T13:49:25;97874.13;;;28.48;63.26
10474;BME280;5284;50.446;7.904;2023-04-28T13:54:32;97855.81;;;29.21;55.11
10474;BME280;5284;50.446;7.904;2023-04-28T13:59:34;97851.91;;;28.81;55.17
10474;BME280;5284;50.446;7.904;2023-04-28T14:04:37;97854.41;;;27.60;58.23
10474;BME280;5284;50.446;7.904;2023-04-28T14:09:43;97869.00;;;24.29;70.88
10474;BME280;5284;50.446;7.904;2023-04-28T14:14:46;97852.38;;;23.90;72.45
10474;BME280;5284;50.446;7.904;2023-04-28T14:19:50;97850.19;;;21.80;88.94
10474;BME280;5284;50.446;7.904;2023-04-28T14:24:54;97853.16;;;19.86;97.39
10474;BME280;5284;50.446;7.904;2023-04-28T14:29:59;97852.28;;;18.85;100.00
10474;BME280;5284;50.446;7.904;2023-04-28T14:35:04;97851.47;;;18.57;100.00
10474;BME280;5284;50.446;7.904;2023-04-28T14:40:09;97836.09;;;18.57;100.00
10474;BME280;5284;50.446;7.904;2023-04-28T14:45:13;97836.34;;;18.14;100.00
10474;BME280;5284;50.446;7.904;2023-04-28T14:50:18;97838.16;;;17.86;100.00
10474;BME280;5284;50.446;7.904;2023-04-28T14:55:22;97836.22;;;17.59;100.00
10474;BME280;5284;50.446;7.904;2023-04-28T15:00:25;97833.59;;;17.66;100.00
10474;BME280;5284;50.446;7.904;2023-04-28T15:05:30;97852.69;;;18.06;100.00
10474;BME280;5284;50.446;7.904;2023-04-28T15:10:38;97814.41;;;18.24;100.00
10474;BME280;5284;50.446;7.904;2023-04-28T15:15:40;97789.25;;;17.33;100.00
10474;BME280;5284;50.446;7.904;2023-04-28T15:20:43;97798.66;;;17.22;100.00
10474;BME280;5284;50.446;7.904;2023-04-28T15:25:47;97824.31;;;17.18;100.00
10474;BME280;5284;50.446;7.904;2023-04-28T15:30:55;97843.19;;;17.04;100.00
10474;BME280;5284;50.446;7.904;2023-04-28T15:35:58;97859.56;;;17.02;100.00
10474;BME280;5284;50.446;7.904;2023-04-28T15:41:03;97853.16;;;16.75;100.00
10474;BME280;5284;50.446;7.904;2023-04-28T15:46:06;97847.94;;;16.73;100.00
10474;BME280;5284;50.446;7.904;2023-04-28T15:51:10;97830.84;;;16.81;100.00
10474;BME280;5284;50.446;7.904;2023-04-28T15:56:14;97821.44;;;17.97;100.00
10474;BME280;5284;50.446;7.904;2023-04-28T16:01:20;97822.66;;;18.70;100.00
10474;BME280;5284;50.446;7.904;2023-04-28T16:06:26;97821.56;;;18.92;100.00
10474;BME280;5284;50.446;7.904;2023-04-28T16:11:31;97837.41;;;18.20;100.00
10474;BME280;5284;50.446;7.904;2023-04-28T16:16:34;97845.66;;;18.94;100.00
10474;BME280;5284;50.446;7.904;2023-04-28T16:21:38;97843.31;;;21.21;100.00
10474;BME280;5284;50.446;7.904;2023-04-28T16:26:42;97848.94;;;29.60;62.14
10474;BME280;5284;50.446;7.904;2023-04-28T16:31:48;97847.97;;;31.95;51.68
10474;BME280;5284;50.446;7.904;2023-04-28T16:36:52;97861.25;;;34.22;45.48
10474;BME280;5284;50.446;7.904;2023-04-28T16:41:56;97855.63;;;31.15;50.35
10474;BME280;5284;50.446;7.904;2023-04-28T16:47:01;97853.16;;;34.99;43.48
10474;BME280;5284;50.446;7.904;2023-04-28T16:52:04;97854.31;;;35.30;41.16
10474;BME280;5284;50.446;7.904;2023-04-28T16:57:08;97861.25;;;36.89;40.61
10474;BME280;5284;50.446;7.904;2023-04-28T17:02:13;97857.28;;;37.48;38.19
10474;BME280;5284;50.446;7.904;2023-04-28T17:07:16;97855.28;;;34.52;43.58
10474;BME280;5284;50.446;7.904;2023-04-28T17:12:20;97862.63;;;35.62;41.49
10474;BME280;5284;50.446;7.904;2023-04-28T17:17:23;97871.25;;;35.61;40.30
10474;BME280;5284;50.446;7.904;2023-04-28T17:22:26;97852.28;;;32.70;44.44
10474;BME280;5284;50.446;7.904;2023-04-28T17:27:32;97851.81;;;28.18;52.98
10474;BME280;5284;50.446;7.904;2023-04-28T17:32:35;97856.16;;;26.02;65.06
10474;BME280;5284;50.446;7.904;2023-04-28T17:37:38;97868.88;;;24.65;73.58
10474;BME280;5284;50.446;7.904;2023-04-28T17:42:42;97877.00;;;23.30;81.14
10474;BME280;5284;50.446;7.904;2023-04-28T17:47:44;97871.84;;;22.55;85.70
10474;BME280;5284;50.446;7.904;2023-04-28T17:52:47;97884.88;;;21.78;90.27
10474;BME280;5284;50.446;7.904;2023-04-28T17:57:51;97888.25;;;20.97;97.34
10474;BME280;5284;50.446;7.904;2023-04-28T18:02:54;97901.19;;;19.71;99.26
10474;BME280;5284;50.446;7.904;2023-04-28T18:07:59;97905.38;;;18.99;92.62
10474;BME280;5284;50.446;7.904;2023-04-28T18:13:05;97918.91;;;18.71;94.37
10474;BME280;5284;50.446;7.904;2023-04-28T18:18:09;97922.97;;;18.19;95.08
10474;BME280;5284;50.446;7.904;2023-04-28T18:23:12;97924.63;;;17.78;98.13
10474;BME280;5284;50.446;7.904;2023-04-28T18:28:17;97931.63;;;17.29;100.00
10474;BME280;5284;50.446;7.904;2023-04-28T18:33:20;97941.19;;;16.74;100.00
10474;BME280;5284;50.446;7.904;2023-04-28T18:38:26;97954.56;;;16.45;100.00
10474;BME280;5284;50.446;7.904;2023-04-28T18:43:32;97959.16;;;16.14;100.00
10474;BME280;5284;50.446;7.904;2023-04-28T18:48:35;97958.69;;;15.88;100.00
10474;BME280;5284;50.446;7.904;2023-04-28T18:53:38;97972.94;;;15.58;100.00
10474;BME280;5284;50.446;7.904;2023-04-28T18:58:42;97984.97;;;15.40;100.00
10474;BME280;5284;50.446;7.904;2023-04-28T19:03:49;97990.06;;;15.11;100.00
10474;BME280;5284;50.446;7.904;2023-04-28T19:08:52;97988.91;;;14.98;100.00
10474;BME280;5284;50.446;7.904;2023-04-28T19:13:56;97996.00;;;14.75;100.00
10474;BME280;5284;50.446;7.904;2023-04-28T19:18:59;98009.59;;;14.65;100.00
10474;BME280;5284;50.446;7.904;2023-04-28T19:24:02;98023.19;;;14.56;100.00
10474;BME280;5284;50.446;7.904;2023-04-28T19:29:07;98023.50;;;14.45;100.00
10474;BME280;5284;50.446;7.904;2023-04-28T19:34:10;98033.06;;;14.31;100.00
10474;BME280;5284;50.446;7.904;2023-04-28T19:39:14;98036.38;;;14.17;100.00
10474;BME280;5284;50.446;7.904;2023-04-28T19:44:19;98038.34;;;14.07;100.00
10474;BME280;5284;50.446;7.904;2023-04-28T19:49:22;98039.34;;;13.98;100.00
10474;BME280;5284;50.446;7.904;2023-04-28T19:54:26;98048.00;;;13.84;100.00
10474;BME280;5284;50.446;7.904;2023-04-28T19:59:30;98045.31;;;13.76;100.00
10474;BME280;5284;50.446;7.904;2023-04-28T20:04:34;98046.44;;;13.66;100.00
10474;BME280;5284;50.446;7.904;2023-04-28T20:09:38;98052.91;;;13.56;100.00
10474;BME280;5284;50.446;7.904;2023-04-28T20:14:43;98060.09;;;13.47;100.00
10474;BME280;5284;50.446;7.904;2023-04-28T20:19:45;98058.72;;;13.43;100.00
10474;BME280;5284;50.446;7.904;2023-04-28T20:24:49;98057.50;;;13.30;100.00
10474;BME280;5284;50.446;7.904;2023-04-28T20:29:54;98059.41;;;13.20;100.00
10474;BME280;5284;50.446;7.904;2023-04-28T20:34:57;98065.19;;;13.07;100.00
10474;BME280;5284;50.446;7.904;2023-04-28T20:40:00;98062.00;;;13.04;100.00
10474;BME280;5284;50.446;7.904;2023-04-28T20:45:07;98058.97;;;12.99;100.00
10474;BME280;5284;50.446;7.904;2023-04-28T20:50:13;98057.34;;;12.88;100.00
10474;BME280;5284;50.446;7.904;2023-04-28T21:08:42;98065.19;;;12.47;100.00
10474;BME280;5284;50.446;7.904;2023-04-28T21:13:45;98066.81;;;12.40;100.00
10474;BME280;5284;50.446;7.904;2023-04-28T21:18:49;98067.13;;;12.19;100.00
10474;BME280;5284;50.446;7.904;2023-04-28T21:23:53;98070.78;;;12.18;100.00
10474;BME280;5284;50.446;7.904;2023-04-28T21:28:57;98071.41;;;12.13;100.00
10474;BME280;5284;50.446;7.904;2023-04-28T21:34:00;98061.06;;;12.00;100.00
10474;BME280;5284;50.446;7.904;2023-04-28T21:39:05;98067.63;;;12.06;100.00
10474;BME280;5284;50.446;7.904;2023-04-28T21:44:08;98067.16;;;11.93;100.00
10474;BME280;5284;50.446;7.904;2023-04-28T21:49:10;98071.38;;;11.95;100.00
10474;BME280;5284;50.446;7.904;2023-04-28T21:54:16;98064.91;;;11.88;100.00
10474;BME280;5284;50.446;7.904;2023-04-28T21:59:18;98063.25;;;11.87;100.00
10474;BME280;5284;50.446;7.904;2023-04-28T22:04:23;98069.44;;;11.88;100.00
10474;BME280;5284;50.446;7.904;2023-04-28T22:09:27;98060.25;;;11.90;100.00
10474;BME280;5284;50.446;7.904;2023-04-28T22:14:30;98066.53;;;11.81;100.00
10474;BME280;5284;50.446;7.904;2023-04-28T22:19:42;98063.53;;;11.84;100.00
10474;BME280;5284;50.446;7.904;2023-04-28T22:24:46;98059.88;;;11.85;100.00
10474;BME280;5284;50.446;7.904;2023-04-28T22:29:50;98066.91;;;11.86;100.00
10474;BME280;5284;50.446;7.904;2023-04-28T22:34:53;98067.06;;;11.85;100.00
10474;BME280;5284;50.446;7.904;2023-04-28T22:39:57;98056.81;;;11.80;100.00
10474;BME280;5284;50.446;7.904;2023-04-28T22:45:00;98068.25;;;11.73;100.00
10474;BME280;5284;50.446;7.904;2023-04-28T22:50:05;98078.72;;;11.66;100.00
10474;BME280;5284;50.446;7.904;2023-04-28T22:55:10;98077.47;;;11.61;100.00
10474;BME280;5284;50.446;7.904;2023-04-28T23:00:13;98081.41;;;11.57;100.00
10474;BME280;5284;50.446;7.904;2023-04-28T23:05:18;98082.13;;;11.49;100.00
10474;BME280;5284;50.446;7.904;2023-04-28T23:10:22;98079.16;;;11.52;100.00
10474;BME280;5284;50.446;7.904;2023-04-28T23:15:25;98088.00;;;11.53;100.00
10474;BME280;5284;50.446;7.904;2023-04-28T23:20:27;98092.38;;;11.63;100.00
10474;BME280;5284;50.446;7.904;2023-04-28T23:25:32;98098.50;;;11.73;100.00
10474;BME280;5284;50.446;7.904;2023-04-28T23:30:35;98095.91;;;11.81;100.00
10474;BME280;5284;50.446;7.904;2023-04-28T23:35:39;98097.69;;;11.90;100.00
10474;BME280;5284;50.446;7.904;2023-04-28T23:40:43;98094.81;;;12.01;100.00
10474;BME280;5284;50.446;7.904;2023-04-28T23:45:46;98095.75;;;12.10;100.00
10474;BME280;5284;50.446;7.904;2023-04-28T23:50:49;98093.47;;;12.15;100.00
10474;BME280;5284;50.446;7.904;2023-04-28T23:55:53;98099.03;;;12.21;100.00
